Time;durP1;ratioP1;P1;durP2;ratioP2;P2;SDS_P1;SDS_P2;PMS_P1;PMS_P2;Temp;Humidity;BMP_temperature;BMP_pressure;BME280_temperature;BME280_humidity;BME280_pressure;Samples;Min_cycle;Max_cycle;Signal;HPM_P1;HPM_P2
2021/11/25 00:00:35;;;;;;;12.82;6.15;;;10.20;89.90;;;;;;5032737;28;20017;-74
2021/11/25 00:03:01;;;;;;;21.65;9.35;;;10.20;89.90;;;;;;5035338;28;20034;-74
2021/11/25 00:05:27;;;;;;;21.55;9.77;;;10.20;90.20;;;;;;5031398;28;20029;-74
2021/11/25 00:07:52;;;;;;;28.00;13.27;;;10.20;89.90;;;;;;5032446;28;20044;-74
2021/11/25 00:10:20;;;;;;;23.92;9.23;;;10.10;89.80;;;;;;5032331;28;20026;-74
2021/11/25 00:12:46;;;;;;;6.18;3.80;;;10.10;89.90;;;;;;5032962;28;20033;-74
2021/11/25 00:15:13;;;;;;;18.25;9.52;;;10.10;89.90;;;;;;5032855;28;20148;-74
2021/11/25 00:17:40;;;;;;;25.40;11.50;;;10.10;89.70;;;;;;5031077;28;20104;-74
2021/11/25 00:20:09;;;;;;;10.57;5.20;;;10.10;89.80;;;;;;5032716;28;20037;-74
2021/11/25 00:22:35;;;;;;;29.02;13.75;;;10.00;89.80;;;;;;5027018;28;20042;-76
2021/11/25 00:25:01;;;;;;;12.98;6.10;;;10.00;89.90;;;;;;5031974;28;20117;-77
2021/11/25 00:27:27;;;;;;;19.88;9.25;;;10.00;89.90;;;;;;5031924;28;20030;-76
2021/11/25 00:29:53;;;;;;;28.25;14.52;;;10.00;89.90;;;;;;5031600;28;20030;-75
2021/11/25 00:32:19;;;;;;;20.02;8.02;;;10.00;89.90;;;;;;5030208;28;20032;-75
2021/11/25 00:34:44;;;;;;;31.17;12.18;;;10.00;90.00;;;;;;5022854;28;20029;-75
2021/11/25 00:37:10;;;;;;;15.98;8.20;;;10.00;90.00;;;;;;5031615;28;20044;-75
2021/11/25 00:39:36;;;;;;;9.43;4.18;;;10.00;90.00;;;;;;5019687;28;20145;-75
2021/11/25 00:42:02;;;;;;;30.23;12.98;;;10.00;90.00;;;;;;5031947;28;20045;-75
2021/11/25 00:44:28;;;;;;;25.92;11.82;;;9.90;90.00;;;;;;5029952;28;20022;-75
2021/11/25 00:46:53;;;;;;;26.40;9.73;;;10.00;90.00;;;;;;5032813;28;20083;-75
2021/11/25 00:49:19;;;;;;;22.00;10.10;;;9.90;90.00;;;;;;5029878;28;20030;-75
2021/11/25 00:51:45;;;;;;;12.23;4.18;;;10.00;90.00;;;;;;5032047;28;20121;-75
2021/11/25 00:54:10;;;;;;;37.53;16.13;;;9.90;90.00;;;;;;5032253;28;20143;-75
2021/11/25 00:56:36;;;;;;;20.35;8.00;;;9.90;89.80;;;;;;5030125;28;20049;-76
2021/11/25 00:59:02;;;;;;;17.15;7.15;;;9.90;90.00;;;;;;5031107;28;20029;-75
2021/11/25 01:01:28;;;;;;;21.67;10.32;;;9.90;90.00;;;;;;5031644;28;20508;-75
2021/11/25 01:03:53;;;;;;;15.80;7.88;;;9.90;90.00;;;;;;5044223;28;20040;-76
2021/11/25 01:06:19;;;;;;;23.92;11.13;;;9.90;90.00;;;;;;5018301;28;20034;-76
2021/11/25 01:08:45;;;;;;;26.40;11.95;;;9.90;89.90;;;;;;5031315;28;20072;-75
2021/11/25 01:11:10;;;;;;;42.92;15.50;;;9.80;89.90;;;;;;5032188;28;20040;-75
2021/11/25 01:13:44;;;;;;;24.10;12.00;;;9.90;90.00;;;;;;5025297;28;20419;-76
2021/11/25 01:16:10;;;;;;;27.08;11.57;;;9.80;90.00;;;;;;5031294;28;20162;-75
2021/11/25 01:18:35;;;;;;;20.80;9.13;;;9.90;90.00;;;;;;5030623;28;20108;-76
2021/11/25 01:21:01;;;;;;;39.42;16.17;;;9.90;90.00;;;;;;5018849;28;20045;-76
2021/11/25 01:23:29;;;;;;;28.25;13.00;;;9.90;90.00;;;;;;5031428;28;20032;-75
2021/11/25 01:25:56;;;;;;;30.35;14.95;;;9.80;90.00;;;;;;5026419;28;20027;-75
2021/11/25 01:28:25;;;;;;;21.42;10.13;;;9.90;90.00;;;;;;5024367;28;20037;-75
2021/11/25 01:30:56;;;;;;;27.50;13.70;;;9.90;90.00;;;;;;5031260;28;20025;-75
2021/11/25 01:33:23;;;;;;;15.95;5.32;;;9.90;90.00;;;;;;5031151;28;20099;-75
2021/11/25 01:35:50;;;;;;;11.13;6.55;;;9.80;90.00;;;;;;5018252;28;20044;-75
2021/11/25 01:38:17;;;;;;;15.10;6.88;;;9.90;90.00;;;;;;5031939;28;20393;-75
2021/11/25 01:40:44;;;;;;;11.27;4.60;;;9.80;90.00;;;;;;5030259;28;20053;-75
2021/11/25 01:43:11;;;;;;;32.90;16.50;;;9.80;90.00;;;;;;5031169;28;20120;-75
2021/11/25 01:45:37;;;;;;;27.95;11.38;;;9.80;89.90;;;;;;5031546;28;20044;-75
2021/11/25 01:48:03;;;;;;;17.60;7.45;;;9.80;90.00;;;;;;5030477;28;20024;-75
2021/11/25 01:50:33;;;;;;;11.80;5.47;;;9.80;90.00;;;;;;5021948;28;20030;-75
2021/11/25 01:52:59;;;;;;;21.23;9.23;;;9.70;90.00;;;;;;5027012;28;20119;-75
2021/11/25 01:55:26;;;;;;;25.27;10.10;;;9.70;90.00;;;;;;5030885;28;20033;-75
2021/11/25 01:57:52;;;;;;;19.30;8.15;;;9.70;90.00;;;;;;5029955;28;20033;-75
2021/11/25 02:00:33;;;;;;;20.27;8.65;;;9.70;90.00;;;;;;5031461;28;20120;-75
2021/11/25 02:03:01;;;;;;;14.15;6.25;;;9.70;90.00;;;;;;5040454;28;20052;-75
2021/11/25 02:05:27;;;;;;;11.02;5.50;;;9.60;90.00;;;;;;5031767;28;20025;-76
2021/11/25 02:07:53;;;;;;;23.33;10.63;;;9.60;90.10;;;;;;5031463;28;20060;-76
2021/11/25 02:10:18;;;;;;;15.77;8.18;;;9.60;90.10;;;;;;5029651;28;20052;-75
2021/11/25 02:12:44;;;;;;;23.65;7.20;;;9.60;90.10;;;;;;5030996;28;20053;-75
2021/11/25 02:15:13;;;;;;;24.30;9.32;;;9.50;90.20;;;;;;5029648;28;20040;-76
2021/11/25 02:17:39;;;;;;;24.77;10.85;;;9.50;90.30;;;;;;5031286;28;20029;-75
2021/11/25 02:20:07;;;;;;;23.00;9.93;;;9.50;90.30;;;;;;5017344;28;20057;-75
2021/11/25 02:22:33;;;;;;;17.67;8.15;;;9.50;90.30;;;;;;5029948;28;20088;-75
2021/11/25 02:24:59;;;;;;;24.17;11.07;;;9.50;90.40;;;;;;5017754;28;20034;-75
2021/11/25 02:27:24;;;;;;;24.30;10.38;;;9.50;90.40;;;;;;5025805;28;20076;-75
2021/11/25 02:29:51;;;;;;;27.20;11.52;;;9.50;90.50;;;;;;5022095;28;20038;-75
2021/11/25 02:32:31;;;;;;;17.55;7.90;;;9.50;90.50;;;;;;5028902;28;20034;-75
2021/11/25 02:34:57;;;;;;;10.68;5.78;;;9.50;90.50;;;;;;5031240;28;20082;-75
2021/11/25 02:37:23;;;;;;;15.80;4.30;;;9.50;90.40;;;;;;5027218;28;20091;-75
2021/11/25 02:39:49;;;;;;;26.75;8.75;;;9.50;90.50;;;;;;5031276;28;20478;-75
2021/11/25 02:42:16;;;;;;;17.55;7.82;;;9.50;90.50;;;;;;5030954;28;20452;-75
2021/11/25 02:44:45;;;;;;;20.88;8.60;;;9.40;90.50;;;;;;5029361;28;20033;-75
2021/11/25 02:47:10;;;;;;;17.60;8.27;;;9.50;90.80;;;;;;5030657;28;20036;-75
2021/11/25 02:49:39;;;;;;;24.67;9.02;;;9.40;90.50;;;;;;5041876;28;20033;-75
2021/11/25 02:52:05;;;;;;;10.18;4.60;;;9.50;90.60;;;;;;5035201;28;20117;-75
2021/11/25 02:54:33;;;;;;;8.63;5.05;;;9.50;90.50;;;;;;5024144;28;20125;-75
2021/11/25 02:56:58;;;;;;;15.63;6.03;;;9.40;90.50;;;;;;5025988;28;20128;-75
2021/11/25 02:59:27;;;;;;;19.55;7.40;;;9.40;90.50;;;;;;5024413;28;20113;-75
2021/11/25 03:01:53;;;;;;;11.00;5.95;;;9.40;90.60;;;;;;5013381;28;20485;-75
2021/11/25 03:04:18;;;;;;;8.75;5.05;;;9.40;90.60;;;;;;5032014;28;20032;-75
2021/11/25 03:06:44;;;;;;;10.07;5.32;;;9.40;90.50;;;;;;5025723;28;20034;-75
2021/11/25 03:09:10;;;;;;;20.38;8.90;;;9.40;90.60;;;;;;5030369;28;20032;-75
2021/11/25 03:11:36;;;;;;;9.50;5.15;;;9.40;90.60;;;;;;5031388;28;20116;-75
2021/11/25 03:14:10;;;;;;;14.75;7.70;;;9.40;90.60;;;;;;5022462;28;20026;-75
2021/11/25 03:16:37;;;;;;;25.38;9.45;;;9.30;90.60;;;;;;5030036;28;20038;-75
2021/11/25 03:19:03;;;;;;;17.88;6.40;;;9.40;90.60;;;;;;5026533;28;20117;-75
2021/11/25 03:21:29;;;;;;;20.45;7.50;;;9.30;90.60;;;;;;5027025;28;20042;-75
2021/11/25 03:23:56;;;;;;;17.88;7.65;;;9.30;90.70;;;;;;5028501;28;20104;-75
2021/11/25 03:26:25;;;;;;;10.30;6.20;;;9.30;90.70;;;;;;5025302;28;20045;-75
2021/11/25 03:28:51;;;;;;;29.70;8.80;;;9.30;90.70;;;;;;5017652;28;20044;-75
2021/11/25 03:31:20;;;;;;;18.45;9.65;;;9.30;90.70;;;;;;5022222;28;20029;-75
2021/11/25 03:33:46;;;;;;;18.60;9.27;;;9.30;90.80;;;;;;5032630;28;20068;-75
2021/11/25 03:36:13;;;;;;;23.42;10.57;;;9.30;90.80;;;;;;5015453;28;20068;-75
2021/11/25 03:38:40;;;;;;;7.30;4.15;;;9.30;90.80;;;;;;5025180;28;20060;-76
2021/11/25 03:41:09;;;;;;;19.92;7.55;;;9.30;90.80;;;;;;5020085;28;20485;-75
2021/11/25 03:43:35;;;;;;;14.70;7.28;;;9.30;90.80;;;;;;5034033;28;20111;-75
2021/11/25 03:46:01;;;;;;;23.98;11.48;;;9.30;90.80;;;;;;5021028;28;20153;-75
2021/11/25 03:48:30;;;;;;;31.02;10.77;;;9.30;90.80;;;;;;5030342;28;20037;-75
2021/11/25 03:50:58;;;;;;;13.65;6.53;;;9.30;90.80;;;;;;5031259;28;20561;-76
2021/11/25 03:53:24;;;;;;;11.85;4.60;;;9.30;90.80;;;;;;5032726;28;20029;-76
2021/11/25 03:55:50;;;;;;;17.50;7.60;;;9.30;90.80;;;;;;5029032;28;20068;-75
2021/11/25 03:58:16;;;;;;;10.63;4.85;;;9.30;90.80;;;;;;5023777;28;20068;-76
2021/11/25 04:00:42;;;;;;;21.70;6.85;;;9.30;90.80;;;;;;5032145;28;20045;-76
2021/11/25 04:03:08;;;;;;;19.27;8.52;;;9.30;90.80;;;;;;5030194;28;20048;-75
2021/11/25 04:05:34;;;;;;;31.80;8.98;;;9.30;90.80;;;;;;5022264;28;20026;-76
2021/11/25 04:08:00;;;;;;;23.08;10.13;;;9.30;90.80;;;;;;5032080;28;20033;-76
2021/11/25 04:10:26;;;;;;;26.60;11.15;;;9.20;90.90;;;;;;5021993;28;20193;-75
2021/11/25 04:12:52;;;;;;;20.30;8.50;;;9.20;90.90;;;;;;5022511;28;20037;-75
2021/11/25 04:15:18;;;;;;;10.95;5.15;;;9.20;90.90;;;;;;5026853;28;20502;-76
2021/11/25 04:17:47;;;;;;;28.98;11.80;;;9.30;90.90;;;;;;5023574;28;20040;-75
2021/11/25 04:20:14;;;;;;;17.58;7.35;;;9.20;90.90;;;;;;5031839;28;20032;-75
2021/11/25 04:22:40;;;;;;;26.05;9.70;;;9.30;90.90;;;;;;5028659;28;20040;-75
2021/11/25 04:25:07;;;;;;;34.55;13.23;;;9.20;90.80;;;;;;5031514;28;20021;-75
2021/11/25 04:27:33;;;;;;;23.90;9.45;;;9.20;90.90;;;;;;5030680;28;20045;-75
2021/11/25 04:30:22;;;;;;;16.00;9.27;;;9.20;90.90;;;;;;5029682;28;20120;-75
2021/11/25 04:35:36;;;;;;;;;;;9.20;90.90;;;;;;5031705;28;20025;-75
2021/11/25 04:38:09;;;;;;;28.30;9.43;;;9.10;90.90;;;;;;5030920;28;19962;-75
2021/11/25 04:40:43;;;;;;;18.23;6.77;;;9.10;90.90;;;;;;5031819;28;20473;-75
2021/11/25 04:43:09;;;;;;;37.53;13.40;;;9.10;91.00;;;;;;5027882;28;20080;-75
2021/11/25 04:45:38;;;;;;;29.65;11.25;;;9.00;91.00;;;;;;5032736;28;20022;-84
2021/11/25 04:48:04;;;;;;;28.08;9.35;;;9.00;91.10;;;;;;5026029;28;20030;-75
2021/11/25 04:50:31;;;;;;;38.20;13.50;;;9.00;91.10;;;;;;5013202;28;20030;-75
2021/11/25 04:52:57;;;;;;;17.67;7.13;;;9.00;91.10;;;;;;5028898;28;21410;-76
2021/11/25 04:55:23;;;;;;;20.55;6.53;;;9.00;91.10;;;;;;5032557;28;20025;-75
2021/11/25 04:57:48;;;;;;;19.48;7.50;;;9.00;91.10;;;;;;5023802;28;20033;-70
2021/11/25 05:00:16;;;;;;;26.02;10.05;;;8.90;91.00;;;;;;5033951;28;20025;-75
2021/11/25 05:02:42;;;;;;;17.00;6.97;;;9.00;91.10;;;;;;5031728;28;20049;-77
2021/11/25 05:05:14;;;;;;;38.95;14.48;;;9.00;91.10;;;;;;5028497;28;20084;-77
2021/11/25 05:07:40;;;;;;;23.08;8.60;;;8.90;91.00;;;;;;5025464;28;20035;-76
2021/11/25 05:10:07;;;;;;;19.98;8.60;;;8.90;91.00;;;;;;5030522;28;20113;-75
2021/11/25 05:12:33;;;;;;;17.60;7.68;;;8.90;91.00;;;;;;5021531;28;20061;-75
2021/11/25 05:14:59;;;;;;;20.58;9.15;;;8.90;91.00;;;;;;5028735;28;20041;-75
2021/11/25 05:17:25;;;;;;;12.95;6.55;;;8.90;91.10;;;;;;5029414;28;20112;-75
2021/11/25 05:19:51;;;;;;;19.13;7.90;;;8.80;91.10;;;;;;5019598;28;20032;-75
2021/11/25 05:22:17;;;;;;;31.58;11.00;;;8.80;91.10;;;;;;5018714;28;20041;-75
2021/11/25 05:24:42;;;;;;;22.30;10.07;;;8.80;91.20;;;;;;5021862;28;20037;-75
2021/11/25 05:27:09;;;;;;;10.90;5.50;;;8.80;91.10;;;;;;5014031;28;20030;-75
2021/11/25 05:29:36;;;;;;;26.52;11.55;;;8.80;91.20;;;;;;5024852;28;20030;-75
2021/11/25 05:32:04;;;;;;;19.10;9.27;;;8.80;91.10;;;;;;5024673;28;20026;-76
2021/11/25 05:34:29;;;;;;;33.35;13.63;;;8.90;91.20;;;;;;5015075;28;20025;-75
2021/11/25 05:36:55;;;;;;;31.02;11.60;;;8.80;91.10;;;;;;5024942;28;20030;-74
2021/11/25 05:39:20;;;;;;;12.60;7.07;;;8.80;91.10;;;;;;5028887;28;20116;-82
2021/11/25 05:41:46;;;;;;;21.73;10.57;;;8.80;91.10;;;;;;5015470;28;20109;-78
2021/11/25 05:44:12;;;;;;;19.17;8.88;;;8.80;91.20;;;;;;5026959;28;20071;-86
2021/11/25 05:46:38;;;;;;;41.75;15.43;;;8.80;91.20;;;;;;5017519;28;20100;-76
2021/11/25 05:49:03;;;;;;;8.43;4.28;;;8.80;91.20;;;;;;5028064;28;20029;-76
2021/11/25 05:51:29;;;;;;;49.92;16.45;;;8.80;91.30;;;;;;5026858;28;20037;-74
2021/11/25 05:53:55;;;;;;;19.45;8.10;;;8.80;91.30;;;;;;5021119;28;20476;-76
2021/11/25 05:56:21;;;;;;;32.75;11.90;;;8.80;91.30;;;;;;5027418;28;20080;-75
2021/11/25 05:58:46;;;;;;;20.88;10.07;;;8.80;91.40;;;;;;5029444;28;20029;-75
2021/11/25 06:01:12;;;;;;;29.77;11.60;;;8.80;91.40;;;;;;5028693;28;20398;-76
2021/11/25 06:03:37;;;;;;;50.35;17.50;;;8.80;91.40;;;;;;5029430;28;20037;-75
2021/11/25 06:06:03;;;;;;;23.95;9.23;;;8.80;91.40;;;;;;5028335;28;20116;-76
2021/11/25 06:08:32;;;;;;;31.48;9.98;;;8.80;91.40;;;;;;5026384;28;20049;-76
2021/11/25 06:11:02;;;;;;;26.67;10.95;;;8.80;91.40;;;;;;5028080;28;20025;-76
2021/11/25 06:13:28;;;;;;;35.22;15.25;;;8.80;91.50;;;;;;5030053;28;20061;-76
2021/11/25 06:15:54;;;;;;;20.42;9.70;;;8.80;91.50;;;;;;5030729;28;20029;-74
2021/11/25 06:18:19;;;;;;;38.63;14.20;;;8.80;91.50;;;;;;5024021;28;20492;-74
2021/11/25 06:20:45;;;;;;;48.33;16.27;;;8.80;91.50;;;;;;5029012;28;20492;-75
2021/11/25 06:23:14;;;;;;;31.77;12.43;;;8.80;91.60;;;;;;5027356;28;20041;-74
2021/11/25 06:25:42;;;;;;;33.85;11.88;;;8.80;91.60;;;;;;5025881;28;20520;-74
2021/11/25 06:28:07;;;;;;;19.35;8.30;;;8.80;91.70;;;;;;5027452;28;20041;-74
2021/11/25 06:30:33;;;;;;;29.20;11.15;;;8.80;91.70;;;;;;5026966;28;20036;-73
2021/11/25 06:32:59;;;;;;;17.42;7.70;;;8.70;91.70;;;;;;5030245;28;20050;-76
2021/11/25 06:35:24;;;;;;;23.25;9.85;;;8.80;91.80;;;;;;5025724;28;20021;-76
2021/11/25 06:37:52;;;;;;;41.10;15.52;;;8.80;91.80;;;;;;5027109;28;20037;-75
2021/11/25 06:40:25;;;;;;;31.40;12.88;;;8.80;91.80;;;;;;5030693;28;20049;-83
2021/11/25 06:42:53;;;;;;;25.75;10.38;;;8.80;91.80;;;;;;5032232;28;20041;-76
2021/11/25 06:45:19;;;;;;;7.22;4.07;;;8.80;91.80;;;;;;5031975;28;20036;-73
2021/11/25 06:47:47;;;;;;;25.63;10.93;;;8.80;92.10;;;;;;5032432;28;20076;-76
2021/11/25 06:50:17;;;;;;;20.17;10.27;;;8.80;91.90;;;;;;5021016;28;20018;-76
2021/11/25 06:52:43;;;;;;;29.92;9.38;;;8.80;91.80;;;;;;5033998;28;20037;-76
2021/11/25 06:55:10;;;;;;;41.10;16.38;;;8.80;91.80;;;;;;5035279;28;20022;-75
2021/11/25 06:57:36;;;;;;;20.73;9.77;;;8.80;91.80;;;;;;5031893;28;20122;-76
2021/11/25 07:00:14;;;;;;;41.38;11.80;;;8.80;91.80;;;;;;5032723;28;20029;-76
2021/11/25 07:02:41;;;;;;;42.03;14.27;;;8.90;91.90;;;;;;5021090;28;20064;-76
2021/11/25 07:05:07;;;;;;;43.67;14.23;;;8.80;91.90;;;;;;5030578;28;20021;-76
2021/11/25 07:07:34;;;;;;;39.58;14.82;;;8.80;91.90;;;;;;5032738;28;20033;-76
2021/11/25 07:10:01;;;;;;;36.58;13.18;;;8.80;91.90;;;;;;5030719;28;20041;-76
2021/11/25 07:12:27;;;;;;;32.22;12.27;;;8.80;92.00;;;;;;5023533;28;20040;-76
2021/11/25 07:14:52;;;;;;;29.48;11.40;;;8.80;92.10;;;;;;5021128;28;20025;-80
2021/11/25 07:17:18;;;;;;;45.63;16.17;;;8.80;92.20;;;;;;5033778;28;20040;-78
2021/11/25 07:19:44;;;;;;;40.17;15.32;;;8.70;92.20;;;;;;5033064;28;20065;-77
2021/11/25 07:22:09;;;;;;;34.15;12.68;;;8.70;92.30;;;;;;5030714;28;20042;-78
2021/11/25 07:24:35;;;;;;;41.00;15.70;;;8.70;92.40;;;;;;5024215;28;20029;-78
2021/11/25 07:27:03;;;;;;;24.42;11.13;;;8.70;92.40;;;;;;5032525;28;20041;-76
2021/11/25 07:29:29;;;;;;;55.38;22.33;;;8.70;92.40;;;;;;5016412;28;20026;-76
2021/11/25 07:32:04;;;;;;;49.00;18.10;;;8.70;92.50;;;;;;5025599;28;20037;-76
2021/11/25 07:34:30;;;;;;;33.05;14.73;;;8.70;92.60;;;;;;5020739;28;20030;-76
2021/11/25 07:36:55;;;;;;;26.95;11.00;;;8.70;92.60;;;;;;5032637;28;20033;-76
2021/11/25 07:39:21;;;;;;;56.78;21.13;;;8.70;92.70;;;;;;5015519;28;20025;-76
2021/11/25 07:41:46;;;;;;;68.57;25.40;;;8.70;92.70;;;;;;5023664;28;20041;-76
2021/11/25 07:44:15;;;;;;;35.58;13.93;;;8.70;92.80;;;;;;5028966;28;20040;-75
2021/11/25 07:46:41;;;;;;;46.58;18.45;;;8.70;92.90;;;;;;5031082;28;20412;-76
2021/11/25 07:49:06;;;;;;;52.60;21.70;;;8.60;92.90;;;;;;5033517;28;20520;-76
2021/11/25 07:51:32;;;;;;;61.63;21.63;;;8.60;93.00;;;;;;5020804;28;20069;-76
2021/11/25 07:54:00;;;;;;;36.15;14.48;;;8.60;93.00;;;;;;5035029;28;20025;-76
2021/11/25 07:56:26;;;;;;;59.83;22.67;;;8.60;93.10;;;;;;5032125;28;20029;-74
2021/11/25 07:58:52;;;;;;;56.88;20.88;;;8.60;93.10;;;;;;5034070;28;20401;-74
2021/11/25 08:01:17;;;;;;;58.50;23.17;;;8.60;93.20;;;;;;5020084;28;20219;-74
2021/11/25 08:03:43;;;;;;;52.45;20.65;;;8.60;93.30;;;;;;5032201;28;20076;-72
2021/11/25 08:06:09;;;;;;;42.95;15.23;;;8.60;93.30;;;;;;5032454;28;20022;-72
2021/11/25 08:08:34;;;;;;;49.58;19.35;;;8.60;93.40;;;;;;5019262;28;20056;-73
2021/11/25 08:11:03;;;;;;;43.78;15.23;;;8.60;93.40;;;;;;5022672;28;20030;-73
2021/11/25 08:13:31;;;;;;;34.60;12.45;;;8.60;93.40;;;;;;5030238;28;20038;-73
2021/11/25 08:15:56;;;;;;;49.05;17.88;;;8.70;93.50;;;;;;5032958;28;20044;-72
2021/11/25 08:18:22;;;;;;;25.73;8.45;;;8.60;93.50;;;;;;5031387;28;20037;-73
2021/11/25 08:20:48;;;;;;;19.08;6.82;;;8.70;93.50;;;;;;5020975;28;20034;-72
2021/11/25 08:23:14;;;;;;;16.50;7.65;;;8.70;93.40;;;;;;5032290;28;20041;-73
2021/11/25 08:25:40;;;;;;;26.27;13.18;;;8.70;93.40;;;;;;5026704;28;20029;-72
2021/11/25 08:28:07;;;;;;;21.60;11.18;;;8.80;93.40;;;;;;5014502;28;20092;-73
2021/11/25 08:30:32;;;;;;;22.02;8.55;;;8.80;93.30;;;;;;5017354;28;20056;-73
2021/11/25 08:32:58;;;;;;;23.90;9.43;;;8.90;93.30;;;;;;5026955;28;20458;-72
2021/11/25 08:35:25;;;;;;;12.48;6.43;;;8.80;93.30;;;;;;5016780;28;20460;-72
2021/11/25 08:37:52;;;;;;;21.33;10.82;;;8.90;93.30;;;;;;5018039;28;20042;-72
2021/11/25 08:40:18;;;;;;;31.05;13.35;;;8.90;93.30;;;;;;5016077;28;20053;-73
2021/11/25 08:42:46;;;;;;;37.10;15.88;;;8.90;93.30;;;;;;5019148;28;20401;-73
2021/11/25 08:45:13;;;;;;;25.30;9.73;;;8.90;93.30;;;;;;5032907;28;20021;-73
2021/11/25 08:47:38;;;;;;;36.28;12.82;;;9.00;93.30;;;;;;5027757;28;20473;-73
2021/11/25 08:50:06;;;;;;;19.25;9.60;;;8.90;93.30;;;;;;5019450;28;20025;-73
2021/11/25 08:52:32;;;;;;;30.90;12.30;;;9.00;93.40;;;;;;5021553;28;20152;-73
2021/11/25 08:54:58;;;;;;;32.67;13.07;;;9.00;93.30;;;;;;5034612;28;20161;-73
2021/11/25 08:57:23;;;;;;;31.20;13.80;;;9.00;93.60;;;;;;5025103;28;20032;-73
2021/11/25 08:59:49;;;;;;;26.80;12.52;;;9.10;93.40;;;;;;5028379;28;20533;-73
2021/11/25 09:02:14;;;;;;;18.83;9.07;;;9.00;93.40;;;;;;5021831;28;20041;-73
2021/11/25 09:04:40;;;;;;;18.05;7.43;;;9.10;93.40;;;;;;5030941;28;20107;-73
2021/11/25 09:07:06;;;;;;;24.33;10.10;;;9.10;93.40;;;;;;5015916;28;20060;-73
2021/11/25 09:09:32;;;;;;;16.60;7.85;;;9.10;93.50;;;;;;5016050;28;20030;-73
2021/11/25 09:11:58;;;;;;;14.70;5.88;;;9.10;93.40;;;;;;5017167;28;20026;-73
2021/11/25 09:14:23;;;;;;;24.33;7.35;;;9.10;93.40;;;;;;5024088;28;20362;-72
2021/11/25 09:16:49;;;;;;;16.67;6.60;;;9.20;93.40;;;;;;5020878;28;20063;-73
2021/11/25 09:19:15;;;;;;;18.55;9.32;;;9.20;93.40;;;;;;5021083;28;20401;-72
2021/11/25 09:21:41;;;;;;;23.33;10.82;;;9.30;93.40;;;;;;5031146;28;20037;-73
2021/11/25 09:24:08;;;;;;;16.88;7.55;;;9.30;93.30;;;;;;5019035;28;20069;-73
2021/11/25 09:26:36;;;;;;;12.52;5.13;;;9.30;93.20;;;;;;5016043;28;20405;-72
2021/11/25 09:29:07;;;;;;;20.80;8.82;;;9.30;93.20;;;;;;5012961;28;20465;-72
2021/11/25 09:31:33;;;;;;;23.63;9.30;;;9.40;93.20;;;;;;5013698;28;20516;-73
2021/11/25 09:34:01;;;;;;;18.80;8.38;;;9.40;93.10;;;;;;5019769;28;20496;-72
2021/11/25 09:36:28;;;;;;;16.45;6.45;;;9.40;93.10;;;;;;5020845;28;20146;-72
2021/11/25 09:38:55;;;;;;;24.50;10.55;;;9.50;93.10;;;;;;5017950;28;20528;-72
2021/11/25 09:41:22;;;;;;;14.52;6.22;;;9.50;93.10;;;;;;5028181;28;20571;-81
2021/11/25 09:43:48;;;;;;;6.32;3.63;;;9.50;93.00;;;;;;5023971;28;20029;-72
2021/11/25 09:46:14;;;;;;;14.20;5.32;;;9.50;93.00;;;;;;5024699;28;20473;-73
2021/11/25 09:48:40;;;;;;;5.18;2.47;;;9.60;93.00;;;;;;5022373;28;20481;-74
2021/11/25 09:51:08;;;;;;;9.85;5.28;;;9.60;93.00;;;;;;5017978;28;20030;-72
2021/11/25 09:53:35;;;;;;;9.18;3.40;;;9.60;93.00;;;;;;5031514;28;20032;-84
2021/11/25 09:56:03;;;;;;;8.40;4.78;;;9.60;93.00;;;;;;5028176;28;20037;-85
2021/11/25 09:58:31;;;;;;;5.80;3.22;;;9.60;93.10;;;;;;5022337;28;20092;-82
2021/11/25 10:01:03;;;;;;;9.55;2.17;;;9.60;93.20;;;;;;5029784;28;20037;-80
2021/11/25 10:03:29;;;;;;;13.10;4.45;;;9.60;93.20;;;;;;5030320;28;20128;-85
2021/11/25 10:05:56;;;;;;;11.73;5.03;;;9.60;93.20;;;;;;5022399;28;20029;-78
2021/11/25 10:08:32;;;;;;;11.70;4.55;;;9.70;93.30;;;;;;5014911;28;20041;-78
2021/11/25 10:11:09;;;;;;;8.57;4.47;;;9.60;93.30;;;;;;5020659;28;20036;-78
2021/11/25 10:13:54;;;;;;;14.63;6.30;;;9.70;93.30;;;;;;5028202;28;20038;-78
2021/11/25 10:16:29;;;;;;;11.60;5.70;;;9.70;93.30;;;;;;5030893;28;20036;-78
2021/11/25 10:18:56;;;;;;;17.45;6.82;;;9.70;93.50;;;;;;5034604;28;20041;-78
2021/11/25 10:21:25;;;;;;;13.27;5.10;;;9.70;93.20;;;;;;5034601;28;20037;-78
2021/11/25 10:23:53;;;;;;;12.25;5.38;;;9.80;93.30;;;;;;5029967;28;20584;-78
2021/11/25 10:26:21;;;;;;;21.48;7.70;;;9.80;93.20;;;;;;5033073;28;20377;-78
2021/11/25 10:28:59;;;;;;;6.20;3.15;;;9.90;93.20;;;;;;5030175;28;20037;-79
2021/11/25 10:31:29;;;;;;;27.17;5.28;;;9.90;93.20;;;;;;5028246;28;20477;-78
2021/11/25 10:34:08;;;;;;;12.93;3.92;;;10.00;93.20;;;;;;5017765;28;20105;-80
2021/11/25 10:41:51;;;;;;;8.40;2.80;;;10.20;92.90;;;;;;5030198;28;20057;-84
2021/11/25 10:44:23;;;;;;;6.88;2.47;;;10.20;92.90;;;;;;5021648;28;20025;-84
2021/11/25 10:46:59;;;;;;;7.07;1.58;;;10.20;92.80;;;;;;5033663;28;20040;-82
2021/11/25 10:49:39;;;;;;;11.30;1.77;;;10.30;92.60;;;;;;5027265;28;20083;-84
2021/11/25 10:52:13;;;;;;;21.70;1.85;;;10.30;92.50;;;;;;5026875;28;20049;-85
2021/11/25 10:54:54;;;;;;;14.75;2.08;;;10.30;92.20;;;;;;5038792;28;20041;-83
2021/11/25 10:57:22;;;;;;;15.73;2.72;;;10.30;92.00;;;;;;5035957;28;20029;-85
2021/11/25 10:59:51;;;;;;;12.45;1.77;;;10.40;91.90;;;;;;5034789;28;20022;-85
2021/11/25 11:02:35;;;;;;;12.00;1.65;;;10.40;91.50;;;;;;5034518;28;20056;-84
2021/11/25 11:05:04;;;;;;;13.13;1.70;;;10.40;91.40;;;;;;5031287;28;20033;-84
2021/11/25 11:07:37;;;;;;;4.65;1.00;;;10.40;91.10;;;;;;5030990;28;20076;-79
2021/11/25 11:10:25;;;;;;;9.50;1.60;;;10.40;91.20;;;;;;5030756;28;20038;-79
2021/11/25 11:13:36;;;;;;;7.43;1.88;;;10.40;90.90;;;;;;5034700;28;20477;-79
2021/11/25 11:15:58;;;;;;;7.70;1.40;;;10.40;90.80;;;;;;5023591;28;20401;-79
2021/11/25 11:21:40;;;;;;;8.32;1.83;;;10.60;90.90;;;;;;5020438;28;20037;-82
2021/11/25 11:24:26;;;;;;;11.68;1.65;;;10.60;90.70;;;;;;5030854;28;20403;-81
2021/11/25 11:27:07;;;;;;;9.63;1.50;;;10.60;90.70;;;;;;5030012;28;20034;-80
2021/11/25 11:29:35;;;;;;;9.23;1.83;;;10.60;90.70;;;;;;5031920;28;20030;-80
2021/11/25 11:32:04;;;;;;;8.07;1.80;;;10.60;90.80;;;;;;5033128;28;20076;-80
2021/11/25 11:34:31;;;;;;;14.18;1.58;;;10.60;90.90;;;;;;5029334;28;20460;-80
2021/11/25 11:36:57;;;;;;;5.28;1.23;;;10.60;91.00;;;;;;5031738;28;20063;-80
2021/11/25 11:39:28;;;;;;;12.55;1.92;;;10.70;91.10;;;;;;5033412;28;20128;-80
2021/11/25 11:42:00;;;;;;;5.30;1.10;;;10.60;91.10;;;;;;5028075;28;20501;-79
2021/11/25 11:44:26;;;;;;;4.13;1.42;;;10.60;91.20;;;;;;5023534;28;20034;-79
2021/11/25 11:46:59;;;;;;;7.57;1.30;;;10.70;91.20;;;;;;5025528;28;20041;-76
2021/11/25 11:49:26;;;;;;;4.43;1.23;;;10.70;91.70;;;;;;5024432;28;20037;-81
2021/11/25 11:52:07;;;;;;;4.97;0.80;;;10.70;91.50;;;;;;5023087;28;20042;-83
2021/11/25 11:54:53;;;;;;;11.43;1.90;;;10.80;91.20;;;;;;5039688;28;20029;-82
2021/11/25 11:57:31;;;;;;;4.55;0.85;;;10.70;91.30;;;;;;5022049;28;20030;-86
2021/11/25 12:00:05;;;;;;;10.18;1.67;;;10.80;91.70;;;;;;5036072;28;20076;-86
2021/11/25 12:02:44;;;;;;;5.25;1.50;;;10.80;91.70;;;;;;5022605;28;20061;-86
2021/11/25 12:05:31;;;;;;;10.50;1.42;;;10.80;91.50;;;;;;5035645;28;20474;-84
2021/11/25 12:08:23;;;;;;;9.68;2.08;;;10.80;91.10;;;;;;5035211;28;20136;-91
2021/11/25 12:10:54;;;;;;;5.20;1.27;;;10.90;91.10;;;;;;5033640;28;20083;-79
2021/11/25 12:13:21;;;;;;;6.28;1.23;;;10.90;90.80;;;;;;5028726;28;20025;-80
2021/11/25 12:15:47;;;;;;;6.57;1.15;;;10.90;90.50;;;;;;5026027;28;20037;-80
2021/11/25 12:18:32;;;;;;;9.18;1.65;;;10.90;90.80;;;;;;5031450;28;20029;-80
2021/11/25 12:21:03;;;;;;;8.18;2.10;;;11.00;90.60;;;;;;5022017;28;20044;-83
2021/11/25 12:23:40;;;;;;;7.88;1.30;;;11.00;90.90;;;;;;5031637;28;20056;-81
2021/11/25 12:26:07;;;;;;;8.60;1.23;;;11.00;90.90;;;;;;5022570;28;20437;-80
2021/11/25 12:28:43;;;;;;;9.48;1.45;;;11.10;91.20;;;;;;5031640;28;20041;-80
2021/11/25 12:33:48;;;;;;;5.55;1.02;;;11.10;90.50;;;;;;5032624;28;20040;-79
2021/11/25 12:36:32;;;;;;;5.78;1.15;;;11.20;90.10;;;;;;5027473;28;20120;-80
2021/11/25 12:38:57;;;;;;;;;;;11.20;90.00;;;;;;5029145;28;20034;-79
2021/11/25 12:41:23;;;;;;;13.02;1.40;;;11.20;90.20;;;;;;5025708;28;19917;-79
2021/11/25 12:43:48;;;;;;;21.02;2.13;;;11.20;88.60;;;;;;5028997;28;20026;-79
2021/11/25 12:46:16;;;;;;;9.25;1.20;;;11.30;88.90;;;;;;5031949;28;20389;-82
2021/11/25 12:48:51;;;;;;;16.60;1.90;;;11.20;88.10;;;;;;5029865;28;20029;-83
2021/11/25 12:51:19;;;;;;;8.63;1.40;;;11.30;87.70;;;;;;5025875;28;20128;-82
2021/11/25 12:53:57;;;;;;;17.17;2.22;;;11.30;88.40;;;;;;5029661;28;20033;-82
2021/11/25 12:56:51;;;;;;;12.25;1.90;;;11.40;88.40;;;;;;5031003;28;20633;-82
2021/11/25 12:59:16;;;;;;;14.40;2.57;;;11.50;87.40;;;;;;5031198;28;20073;-80
2021/11/25 13:01:47;;;;;;;11.95;1.77;;;11.50;87.50;;;;;;5029746;28;20336;-78